Time;durP1;ratioP1;P1;durP2;ratioP2;P2;SDS_P1;SDS_P2;PMS_P1;PMS_P2;Temp;Humidity;BMP_temperature;BMP_pressure;BME280_temperature;BME280_humidity;BME280_pressure;Samples;Min_cycle;Max_cycle;Signal;HPM_P1;HPM_P2
2021/09/11 00:01:04;;;;;;;21.58;2.28;;;;;;;;;;5100333;28;20208;-47
2021/09/11 00:03:33;;;;;;;15.73;2.72;;;;;;;;;;5099072;28;20028;-43
2021/09/11 00:06:00;;;;;;;17.05;2.53;;;;;;;;;;5097440;28;20487;-45
2021/09/11 00:08:27;;;;;;;12.63;2.30;;;;;;;;;;5103987;28;20107;-42
2021/09/11 00:10:54;;;;;;;16.70;2.20;;;;;;;;;;5094487;28;20110;-38
2021/09/11 00:13:21;;;;;;;25.30;3.28;;;;;;;;;;5102278;28;20027;-45
2021/09/11 00:15:49;;;;;;;21.45;2.30;;;;;;;;;;5094064;28;20069;-42
2021/09/11 00:18:16;;;;;;;14.80;3.40;;;;;;;;;;5094050;28;20020;-47
2021/09/11 00:20:43;;;;;;;17.77;3.05;;;;;;;;;;5099992;28;20122;-50
2021/09/11 00:23:11;;;;;;;19.35;2.88;;;;;;;;;;5094958;28;20030;-48
2021/09/11 00:25:38;;;;;;;18.23;3.72;;;;;;;;;;5090723;28;20051;-39
2021/09/11 00:28:05;;;;;;;14.93;2.75;;;;;;;;;;5093845;28;20063;-46
2021/09/11 00:30:32;;;;;;;18.33;3.70;;;;;;;;;;5075375;28;20702;-46
2021/09/11 00:32:59;;;;;;;23.13;3.28;;;;;;;;;;5096839;28;20022;-43
2021/09/11 00:35:26;;;;;;;18.45;2.95;;;;;;;;;;5098831;28;20035;-53
2021/09/11 00:37:53;;;;;;;14.98;3.10;;;;;;;;;;5094488;28;20028;-46
2021/09/11 00:40:20;;;;;;;16.85;3.17;;;;;;;;;;5072913;28;20087;-47
2021/09/11 00:42:48;;;;;;;20.35;3.95;;;;;;;;;;5095629;28;20035;-41
2021/09/11 00:45:22;;;;;;;15.95;3.85;;;;;;;;;;5082395;28;20026;-52
2021/09/11 00:47:50;;;;;;;15.57;3.55;;;;;;;;;;5093358;28;20020;-52
2021/09/11 00:50:18;;;;;;;17.60;3.92;;;;;;;;;;5092642;28;20665;-50
2021/09/11 00:52:46;;;;;;;19.48;4.57;;;;;;;;;;5087884;28;20091;-47
2021/09/11 00:55:14;;;;;;;25.23;5.63;;;;;;;;;;5091599;28;20490;-50
2021/09/11 00:57:42;;;;;;;20.58;5.03;;;;;;;;;;5094537;28;20067;-47
2021/09/11 01:00:10;;;;;;;20.23;4.88;;;;;;;;;;5086791;28;20361;-49
2021/09/11 01:02:37;;;;;;;27.23;5.97;;;;;;;;;;5090734;28;20043;-50
2021/09/11 01:05:07;;;;;;;18.52;4.88;;;;;;;;;;5085946;28;20124;-43
2021/09/11 01:07:39;;;;;;;18.63;4.72;;;;;;;;;;5066375;28;20024;-48
2021/09/11 01:10:06;;;;;;;23.80;5.63;;;;;;;;;;5086558;28;20016;-50
2021/09/11 01:12:34;;;;;;;24.80;5.53;;;;;;;;;;5087251;28;20024;-49
2021/09/11 01:15:04;;;;;;;16.20;4.80;;;;;;;;;;5081853;28;20024;-48
2021/09/11 01:17:31;;;;;;;22.10;5.18;;;;;;;;;;5089566;28;20029;-46
2021/09/11 01:19:58;;;;;;;21.55;4.80;;;;;;;;;;5087903;28;20101;-47
2021/09/11 01:22:25;;;;;;;19.95;4.80;;;;;;;;;;5097338;28;20028;-47
2021/09/11 01:24:56;;;;;;;20.52;4.53;;;;;;;;;;5092744;28;20036;-44
2021/09/11 01:27:23;;;;;;;18.17;4.53;;;;;;;;;;5093592;28;20028;-48
2021/09/11 01:29:57;;;;;;;15.43;4.15;;;;;;;;;;5098667;28;20023;-48
2021/09/11 01:32:25;;;;;;;17.27;4.90;;;;;;;;;;5084154;28;20016;-52
2021/09/11 01:34:52;;;;;;;19.75;5.07;;;;;;;;;;5087310;28;20039;-45
2021/09/11 01:37:20;;;;;;;15.68;4.38;;;;;;;;;;5099479;28;20012;-50
2021/09/11 01:39:48;;;;;;;19.05;4.68;;;;;;;;;;5092937;28;20052;-43
2021/09/11 01:42:16;;;;;;;21.42;4.25;;;;;;;;;;5087749;28;20036;-47
2021/09/11 01:44:53;;;;;;;16.20;4.43;;;;;;;;;;5085292;28;20056;-47
2021/09/11 01:47:20;;;;;;;14.48;3.88;;;;;;;;;;5098008;28;20051;-44
2021/09/11 01:49:47;;;;;;;15.13;3.45;;;;;;;;;;5098365;28;20008;-40
2021/09/11 01:52:14;;;;;;;11.25;3.67;;;;;;;;;;5078031;28;20031;-49
2021/09/11 01:54:42;;;;;;;10.15;3.10;;;;;;;;;;5101620;28;20028;-48
2021/09/11 01:57:12;;;;;;;18.00;3.92;;;;;;;;;;5099654;28;20115;-43
2021/09/11 01:59:40;;;;;;;12.38;3.50;;;;;;;;;;5098808;28;20099;-44
2021/09/11 02:02:08;;;;;;;11.63;3.42;;;;;;;;;;5102814;28;20036;-47
2021/09/11 02:04:36;;;;;;;13.23;4.25;;;;;;;;;;5102675;28;20008;-47
2021/09/11 02:07:03;;;;;;;12.95;3.53;;;;;;;;;;5097947;28;20038;-48
2021/09/11 02:09:31;;;;;;;17.88;3.63;;;;;;;;;;5089915;28;20111;-46
2021/09/11 02:11:58;;;;;;;9.60;3.03;;;;;;;;;;5104456;28;20056;-46
2021/09/11 02:14:25;;;;;;;9.85;2.70;;;;;;;;;;5101487;28;20149;-47
2021/09/11 02:16:53;;;;;;;12.13;3.20;;;;;;;;;;5103609;28;20024;-42
2021/09/11 02:19:21;;;;;;;12.88;3.15;;;;;;;;;;5107812;28;20011;-44
2021/09/11 02:21:48;;;;;;;9.75;2.72;;;;;;;;;;5109503;28;20158;-45
2021/09/11 02:24:17;;;;;;;11.27;3.10;;;;;;;;;;5111188;28;20055;-45
2021/09/11 02:26:44;;;;;;;10.95;2.92;;;;;;;;;;5104638;28;20028;-47
2021/09/11 02:29:11;;;;;;;13.40;3.15;;;;;;;;;;5108101;28;20605;-48
2021/09/11 02:31:38;;;;;;;8.55;2.33;;;;;;;;;;5109432;28;20028;-48
2021/09/11 02:34:05;;;;;;;6.22;2.60;;;;;;;;;;5108700;28;20027;-48
2021/09/11 02:36:32;;;;;;;10.07;2.80;;;;;;;;;;5111660;28;20047;-47
2021/09/11 02:39:00;;;;;;;10.23;2.72;;;;;;;;;;5107445;28;20044;-44
2021/09/11 02:41:28;;;;;;;6.32;2.22;;;;;;;;;;5109442;28;20486;-41
2021/09/11 02:43:56;;;;;;;10.38;2.83;;;;;;;;;;5083037;28;20110;-48
2021/09/11 02:46:23;;;;;;;9.10;2.55;;;;;;;;;;5105570;28;20059;-45
2021/09/11 02:48:51;;;;;;;9.88;2.33;;;;;;;;;;5104640;28;20019;-44
2021/09/11 02:51:18;;;;;;;11.73;2.45;;;;;;;;;;5105305;28;20035;-45
2021/09/11 02:53:45;;;;;;;8.82;2.20;;;;;;;;;;5109304;28;20020;-45
2021/09/11 02:56:12;;;;;;;5.60;1.88;;;;;;;;;;5105276;28;20056;-52
2021/09/11 02:58:40;;;;;;;5.65;1.98;;;;;;;;;;5107937;28;20095;-48
2021/09/11 03:01:07;;;;;;;10.15;2.10;;;;;;;;;;5105540;28;20089;-43
2021/09/11 03:03:34;;;;;;;3.75;1.52;;;;;;;;;;5103565;28;20012;-47
2021/09/11 03:06:02;;;;;;;9.25;2.00;;;;;;;;;;5110765;28;20073;-51
2021/09/11 03:08:29;;;;;;;12.45;1.80;;;;;;;;;;5088994;28;20015;-46
2021/09/11 03:10:56;;;;;;;7.05;1.80;;;;;;;;;;5111297;28;20098;-49
2021/09/11 03:13:23;;;;;;;5.72;1.58;;;;;;;;;;5107969;28;20420;-48
2021/09/11 03:15:51;;;;;;;5.35;1.80;;;;;;;;;;5104667;28;20103;-46
2021/09/11 03:18:19;;;;;;;5.72;2.03;;;;;;;;;;5107181;28;20531;-43
2021/09/11 03:20:50;;;;;;;4.20;1.55;;;;;;;;;;5108105;28;20058;-41
2021/09/11 03:23:17;;;;;;;4.18;1.52;;;;;;;;;;5102223;28;20023;-49
2021/09/11 03:25:45;;;;;;;3.72;1.48;;;;;;;;;;5109400;28;20501;-47
2021/09/11 03:28:12;;;;;;;7.18;1.70;;;;;;;;;;5085763;28;20383;-49
2021/09/11 03:30:39;;;;;;;4.32;1.20;;;;;;;;;;5108155;28;20034;-49
2021/09/11 03:33:08;;;;;;;4.18;1.50;;;;;;;;;;5106796;28;20546;-44
2021/09/11 03:35:35;;;;;;;6.13;1.75;;;;;;;;;;5106469;28;20030;-50
2021/09/11 03:38:03;;;;;;;4.03;1.30;;;;;;;;;;5090721;28;20019;-45
2021/09/11 03:40:30;;;;;;;3.55;2.03;;;;;;;;;;5106451;28;20464;-47
2021/09/11 03:42:58;;;;;;;3.90;1.52;;;;;;;;;;5086218;28;20023;-47
2021/09/11 03:45:25;;;;;;;2.85;1.13;;;;;;;;;;5108243;28;20375;-49
2021/09/11 03:47:52;;;;;;;4.25;1.00;;;;;;;;;;5098116;28;20095;-47
2021/09/11 03:50:20;;;;;;;6.43;1.20;;;;;;;;;;5091877;28;20475;-47
2021/09/11 03:52:47;;;;;;;3.80;1.48;;;;;;;;;;5092392;28;20123;-49
2021/09/11 03:55:14;;;;;;;4.05;1.15;;;;;;;;;;5092781;28;20044;-48
2021/09/11 03:57:42;;;;;;;7.13;1.60;;;;;;;;;;5092661;28;20079;-45
2021/09/11 04:00:10;;;;;;;4.05;1.08;;;;;;;;;;5092653;28;20362;-47
2021/09/11 04:02:38;;;;;;;5.57;1.17;;;;;;;;;;5092711;28;20103;-47
2021/09/11 04:05:05;;;;;;;3.38;1.10;;;;;;;;;;5092668;28;20014;-46
2021/09/11 04:07:33;;;;;;;5.32;1.20;;;;;;;;;;5092096;28;20418;-45
2021/09/11 04:10:01;;;;;;;3.28;1.38;;;;;;;;;;5092446;28;20489;-47
2021/09/11 04:12:28;;;;;;;4.75;0.90;;;;;;;;;;5092539;28;20603;-53
2021/09/11 04:14:56;;;;;;;4.68;1.00;;;;;;;;;;5092260;28;20043;-48
2021/09/11 04:17:23;;;;;;;3.70;1.20;;;;;;;;;;5092628;28;20051;-48
2021/09/11 04:19:50;;;;;;;4.30;0.98;;;;;;;;;;5092099;28;20062;-46
2021/09/11 04:22:17;;;;;;;4.32;0.70;;;;;;;;;;5092127;28;20028;-47
2021/09/11 04:24:44;;;;;;;2.40;0.90;;;;;;;;;;5092268;28;20016;-49
2021/09/11 04:27:12;;;;;;;2.22;0.77;;;;;;;;;;5073804;28;20442;-49
2021/09/11 04:29:39;;;;;;;1.98;0.68;;;;;;;;;;5092144;28;20068;-48
2021/09/11 04:32:07;;;;;;;3.67;0.88;;;;;;;;;;5092143;28;20073;-45
2021/09/11 04:34:34;;;;;;;4.35;0.90;;;;;;;;;;5092234;28;20062;-47
2021/09/11 04:37:01;;;;;;;2.47;0.90;;;;;;;;;;5073291;28;20442;-48
2021/09/11 04:39:28;;;;;;;1.70;0.88;;;;;;;;;;5091855;28;20036;-47
2021/09/11 04:41:55;;;;;;;2.08;0.65;;;;;;;;;;5091623;28;20411;-48
2021/09/11 04:44:23;;;;;;;1.88;0.90;;;;;;;;;;5092181;28;20169;-47
2021/09/11 04:46:50;;;;;;;4.82;0.80;;;;;;;;;;5092012;28;20419;-45
2021/09/11 04:49:18;;;;;;;3.72;0.75;;;;;;;;;;5091698;28;20020;-48
2021/09/11 04:51:46;;;;;;;1.58;0.60;;;;;;;;;;5091576;28;20101;-53
2021/09/11 04:54:13;;;;;;;2.95;0.80;;;;;;;;;;5091795;28;20379;-50
2021/09/11 04:56:40;;;;;;;2.17;0.60;;;;;;;;;;5091567;28;20024;-51
2021/09/11 04:59:07;;;;;;;1.17;0.60;;;;;;;;;;5090752;28;20028;-47
2021/09/11 05:01:34;;;;;;;1.58;0.60;;;;;;;;;;5071775;28;20036;-51
2021/09/11 05:04:01;;;;;;;1.13;0.50;;;;;;;;;;5071448;28;20013;-51
2021/09/11 05:06:28;;;;;;;2.08;0.63;;;;;;;;;;5071204;28;20020;-49
2021/09/11 05:08:55;;;;;;;2.05;0.45;;;;;;;;;;5071608;28;20021;-51
2021/09/11 05:11:23;;;;;;;1.60;0.68;;;;;;;;;;5071388;28;20024;-48
2021/09/11 05:13:50;;;;;;;1.77;0.40;;;;;;;;;;5063267;28;20024;-49
2021/09/11 05:16:17;;;;;;;2.90;0.57;;;;;;;;;;5071188;28;20021;-51
2021/09/11 05:18:44;;;;;;;0.73;0.50;;;;;;;;;;5071183;28;20109;-49
2021/09/11 05:21:11;;;;;;;2.15;0.60;;;;;;;;;;5095132;28;20469;-51
2021/09/11 05:23:38;;;;;;;1.25;0.47;;;;;;;;;;5092851;28;20472;-51
2021/09/11 05:26:06;;;;;;;1.35;0.60;;;;;;;;;;5073605;28;20024;-51
2021/09/11 05:28:33;;;;;;;1.40;0.60;;;;;;;;;;5091393;28;20028;-52
2021/09/11 05:31:00;;;;;;;1.17;0.40;;;;;;;;;;5091650;28;20414;-51
2021/09/11 05:33:27;;;;;;;1.38;0.52;;;;;;;;;;5091459;28;20024;-50
2021/09/11 05:35:55;;;;;;;0.38;0.30;;;;;;;;;;5091488;28;20035;-51
2021/09/11 05:38:22;;;;;;;1.90;0.70;;;;;;;;;;5091337;28;20127;-48
2021/09/11 05:40:49;;;;;;;0.50;0.30;;;;;;;;;;5091519;28;20016;-52
2021/09/11 05:43:16;;;;;;;1.10;0.52;;;;;;;;;;5091548;28;20024;-51
2021/09/11 05:45:43;;;;;;;2.08;0.73;;;;;;;;;;5091339;28;20020;-49
2021/09/11 05:48:10;;;;;;;2.08;0.52;;;;;;;;;;5093449;28;20049;-52
2021/09/11 05:50:37;;;;;;;5.05;0.73;;;;;;;;;;5095245;28;20024;-52
2021/09/11 05:53:04;;;;;;;1.23;0.50;;;;;;;;;;5095347;28;20476;-50
2021/09/11 05:55:31;;;;;;;2.35;0.68;;;;;;;;;;5095373;28;20078;-54
2021/09/11 05:57:58;;;;;;;1.95;0.40;;;;;;;;;;5095316;28;20031;-51
2021/09/11 06:00:25;;;;;;;1.02;0.52;;;;;;;;;;5095121;28;20020;-49
2021/09/11 06:02:52;;;;;;;1.38;0.40;;;;;;;;;;5095057;28;20028;-47
2021/09/11 06:05:19;;;;;;;1.10;0.40;;;;;;;;;;5095083;28;20023;-51
2021/09/11 06:07:46;;;;;;;0.65;0.40;;;;;;;;;;5094997;28;20024;-51
2021/09/11 06:10:13;;;;;;;0.82;0.30;;;;;;;;;;5095274;28;20024;-49
2021/09/11 06:12:40;;;;;;;0.98;0.30;;;;;;;;;;5094640;28;20031;-51
2021/09/11 06:15:08;;;;;;;1.58;0.50;;;;;;;;;;5093310;28;20495;-49
2021/09/11 06:17:35;;;;;;;1.42;0.40;;;;;;;;;;5094391;28;20052;-51
2021/09/11 06:20:02;;;;;;;1.15;0.40;;;;;;;;;;5094751;28;20480;-50
2021/09/11 06:22:29;;;;;;;2.78;0.40;;;;;;;;;;5094676;28;20031;-52
2021/09/11 06:24:56;;;;;;;1.00;0.30;;;;;;;;;;5094919;28;20495;-51
2021/09/11 06:27:23;;;;;;;1.02;0.38;;;;;;;;;;5094440;28;20043;-49
2021/09/11 06:29:50;;;;;;;0.52;0.30;;;;;;;;;;5094650;28;20027;-49
2021/09/11 06:32:17;;;;;;;0.82;0.30;;;;;;;;;;5094439;28;20028;-50
2021/09/11 06:34:45;;;;;;;0.30;0.25;;;;;;;;;;5094608;28;20024;-47
2021/09/11 06:37:11;;;;;;;0.52;0.40;;;;;;;;;;5094515;28;20537;-48
2021/09/11 06:39:39;;;;;;;1.23;0.30;;;;;;;;;;5075922;28;20051;-52
2021/09/11 06:42:06;;;;;;;0.70;0.40;;;;;;;;;;5094396;28;20024;-51
2021/09/11 06:44:33;;;;;;;0.30;0.30;;;;;;;;;;5075979;28;20024;-51
2021/09/11 06:47:01;;;;;;;0.98;0.20;;;;;;;;;;5094348;28;20065;-48
2021/09/11 06:49:28;;;;;;;0.63;0.30;;;;;;;;;;5094015;28;20025;-49
2021/09/11 06:51:55;;;;;;;0.82;0.40;;;;;;;;;;5094151;28;20494;-51
2021/09/11 06:54:22;;;;;;;0.43;0.30;;;;;;;;;;5076016;28;20452;-54
2021/09/11 06:56:49;;;;;;;0.85;0.40;;;;;;;;;;5075837;28;20407;-51
2021/09/11 06:59:16;;;;;;;0.50;0.32;;;;;;;;;;5094068;28;20136;-53
2021/09/11 07:01:43;;;;;;;1.73;0.30;;;;;;;;;;5093790;28;20028;-48
2021/09/11 07:04:10;;;;;;;0.40;0.30;;;;;;;;;;5094195;28;20033;-54
2021/09/11 07:06:37;;;;;;;0.70;0.30;;;;;;;;;;5093793;28;20098;-52
2021/09/11 07:09:04;;;;;;;0.40;0.30;;;;;;;;;;5093910;28;20028;-44
2021/09/11 07:11:31;;;;;;;0.73;0.35;;;;;;;;;;5093814;28;20020;-53
2021/09/11 07:13:58;;;;;;;0.32;0.30;;;;;;;;;;5093884;28;20016;-51
2021/09/11 07:16:25;;;;;;;1.02;0.40;;;;;;;;;;5093434;28;20024;-47
2021/09/11 07:18:52;;;;;;;0.60;0.30;;;;;;;;;;5093735;28;20016;-51
2021/09/11 07:21:19;;;;;;;1.27;0.30;;;;;;;;;;5093695;28;20039;-51
2021/09/11 07:23:47;;;;;;;1.15;0.40;;;;;;;;;;5093167;28;20020;-51
2021/09/11 07:26:18;;;;;;;0.52;0.32;;;;;;;;;;5093641;28;20128;-44
2021/09/11 07:28:49;;;;;;;0.63;0.30;;;;;;;;;;5093057;28;20473;-50
2021/09/11 07:31:16;;;;;;;1.83;0.30;;;;;;;;;;5093273;28;20024;-51
2021/09/11 07:33:43;;;;;;;0.45;0.45;;;;;;;;;;5093287;28;20111;-52
2021/09/11 07:36:10;;;;;;;1.13;0.30;;;;;;;;;;5093398;28;20594;-51
2021/09/11 07:38:38;;;;;;;0.35;0.28;;;;;;;;;;5092890;28;20051;-51
2021/09/11 07:41:05;;;;;;;0.40;0.30;;;;;;;;;;5093332;28;20119;-50
2021/09/11 07:43:33;;;;;;;1.58;0.47;;;;;;;;;;5093323;28;20113;-48
2021/09/11 07:46:00;;;;;;;0.85;0.50;;;;;;;;;;5093038;28;20012;-51
2021/09/11 07:48:27;;;;;;;0.45;0.25;;;;;;;;;;5093235;28;20024;-51
2021/09/11 07:50:54;;;;;;;0.60;0.30;;;;;;;;;;5092890;28;20031;-51
2021/09/11 07:53:21;;;;;;;0.45;0.30;;;;;;;;;;5092916;28;20043;-53
2021/09/11 07:55:48;;;;;;;2.13;0.50;;;;;;;;;;5092893;28;20031;-52
2021/09/11 07:58:14;;;;;;;1.65;0.47;;;;;;;;;;5093072;28;20020;-53
2021/09/11 08:00:41;;;;;;;1.15;0.30;;;;;;;;;;5092756;28;20028;-53
2021/09/11 08:03:09;;;;;;;0.30;0.30;;;;;;;;;;5092766;28;20066;-52
2021/09/11 08:05:37;;;;;;;3.67;0.47;;;;;;;;;;5092950;28;20356;-50
2021/09/11 08:08:04;;;;;;;0.22;0.20;;;;;;;;;;5092500;28;20471;-50
2021/09/11 08:10:32;;;;;;;0.45;0.30;;;;;;;;;;5092242;28;20017;-50
2021/09/11 08:12:59;;;;;;;0.28;0.20;;;;;;;;;;5092646;28;20029;-52
2021/09/11 08:15:26;;;;;;;0.30;0.30;;;;;;;;;;5092519;28;20151;-52
2021/09/11 08:17:53;;;;;;;0.82;0.30;;;;;;;;;;5092384;28;20475;-51
2021/09/11 08:20:20;;;;;;;0.82;0.30;;;;;;;;;;5092631;28;20034;-50
2021/09/11 08:22:47;;;;;;;0.50;0.30;;;;;;;;;;5092083;28;20228;-51
2021/09/11 08:25:14;;;;;;;1.00;0.40;;;;;;;;;;5092550;28;20672;-51
2021/09/11 08:27:41;;;;;;;0.77;0.30;;;;;;;;;;5092519;28;20020;-52
2021/09/11 08:30:08;;;;;;;0.90;0.40;;;;;;;;;;5092266;28;20028;-52
2021/09/11 08:32:36;;;;;;;0.50;0.32;;;;;;;;;;5078519;28;20020;-50
2021/09/11 08:35:04;;;;;;;0.40;0.22;;;;;;;;;;5092460;28;20074;-52
2021/09/11 08:37:31;;;;;;;0.40;0.30;;;;;;;;;;5092019;28;20013;-52
2021/09/11 08:39:58;;;;;;;0.93;0.28;;;;;;;;;;5092151;28;20044;-51
2021/09/11 08:42:25;;;;;;;0.30;0.30;;;;;;;;;;5092133;28;20024;-49
2021/09/11 08:44:52;;;;;;;0.43;0.40;;;;;;;;;;5091974;28;20016;-51
2021/09/11 08:47:19;;;;;;;0.60;0.40;;;;;;;;;;5091994;28;20051;-54
2021/09/11 08:49:46;;;;;;;0.40;0.32;;;;;;;;;;5092205;28;20067;-53
2021/09/11 08:52:13;;;;;;;0.50;0.30;;;;;;;;;;5091942;28;20024;-50
2021/09/11 08:54:41;;;;;;;0.38;0.32;;;;;;;;;;5077599;28;20028;-49
2021/09/11 08:57:24;;;;;;;0.35;0.28;;;;;;;;;;5092189;28;20028;-51
2021/09/11 08:59:52;;;;;;;0.52;0.40;;;;;;;;;;5078373;28;20030;-51
2021/09/11 09:02:20;;;;;;;1.00;0.65;;;;;;;;;;5091867;28;20042;-52
2021/09/11 09:04:51;;;;;;;0.50;0.45;;;;;;;;;;5091698;28;20020;-51
2021/09/11 09:07:30;;;;;;;0.52;0.30;;;;;;;;;;5092088;28;20020;-51
2021/09/11 09:09:58;;;;;;;0.30;0.30;;;;;;;;;;5091666;28;20110;-51
2021/09/11 09:12:25;;;;;;;0.43;0.30;;;;;;;;;;5091792;28;20357;-50
2021/09/11 09:15:03;;;;;;;0.40;0.30;;;;;;;;;;5091588;28;20020;-51
2021/09/11 09:17:39;;;;;;;0.63;0.40;;;;;;;;;;5091747;28;20031;-51
2021/09/11 09:20:20;;;;;;;1.10;0.40;;;;;;;;;;5091646;28;20016;-47
2021/09/11 09:22:48;;;;;;;0.52;0.20;;;;;;;;;;5092938;28;20050;-51
2021/09/11 09:25:21;;;;;;;0.52;0.30;;;;;;;;;;5095700;28;20021;-50
2021/09/11 09:27:50;;;;;;;0.70;0.50;;;;;;;;;;5095891;28;20108;-51
2021/09/11 09:30:19;;;;;;;0.90;0.43;;;;;;;;;;5095706;28;20099;-52
2021/09/11 09:32:50;;;;;;;0.40;0.30;;;;;;;;;;5095645;28;20073;-51
2021/09/11 09:35:25;;;;;;;0.60;0.30;;;;;;;;;;5077246;28;20051;-51
2021/09/11 09:38:02;;;;;;;0.35;0.28;;;;;;;;;;5095690;28;20103;-53
2021/09/11 09:40:36;;;;;;;1.85;0.40;;;;;;;;;;5095330;28;20076;-50
2021/09/11 09:43:04;;;;;;;0.50;0.40;;;;;;;;;;5095675;28;20039;-49
2021/09/11 09:45:32;;;;;;;0.60;0.50;;;;;;;;;;5095433;28;20020;-48
2021/09/11 09:48:03;;;;;;;1.63;0.50;;;;;;;;;;5095485;28;20028;-51
2021/09/11 09:50:31;;;;;;;0.57;0.45;;;;;;;;;;5095422;28;20019;-46
2021/09/11 09:52:59;;;;;;;0.40;0.30;;;;;;;;;;5095495;28;20076;-48
2021/09/11 09:55:27;;;;;;;0.75;0.40;;;;;;;;;;5095257;28;20016;-52
2021/09/11 09:57:54;;;;;;;0.65;0.40;;;;;;;;;;5095147;28;20031;-52
2021/09/11 10:00:21;;;;;;;0.60;0.40;;;;;;;;;;5095261;28;20017;-50
2021/09/11 10:02:48;;;;;;;1.20;0.60;;;;;;;;;;5094915;28;20503;-51
2021/09/11 10:05:15;;;;;;;0.82;0.50;;;;;;;;;;5095237;28;20468;-52
2021/09/11 10:08:08;;;;;;;0.60;0.35;;;;;;;;;;5095040;28;20024;-52
2021/09/11 10:10:46;;;;;;;0.88;0.50;;;;;;;;;;5092012;28;20028;-50
2021/09/11 10:13:15;;;;;;;0.40;0.30;;;;;;;;;;5095049;28;20094;-50
2021/09/11 10:15:53;;;;;;;0.47;0.45;;;;;;;;;;5094976;28;20031;-46
2021/09/11 10:18:32;;;;;;;0.55;0.47;;;;;;;;;;5094822;28;20032;-50
2021/09/11 10:21:18;;;;;;;0.65;0.50;;;;;;;;;;5094777;28;20016;-52
2021/09/11 10:24:05;;;;;;;0.32;0.30;;;;;;;;;;5092032;28;20024;-49
2021/09/11 10:26:45;;;;;;;0.30;0.30;;;;;;;;;;5094619;28;20024;-51
2021/09/11 10:29:33;;;;;;;0.32;0.30;;;;;;;;;;5080879;28;20467;-45
2021/09/11 10:32:12;;;;;;;0.73;0.40;;;;;;;;;;5094407;28;20024;-51
2021/09/11 10:34:45;;;;;;;2.22;0.60;;;;;;;;;;5094192;28;20031;-52
2021/09/11 10:37:13;;;;;;;0.82;0.50;;;;;;;;;;5095414;28;20020;-50
2021/09/11 10:39:40;;;;;;;1.05;0.50;;;;;;;;;;5105464;28;20398;-51
2021/09/11 10:42:08;;;;;;;0.55;0.50;;;;;;;;;;5092853;28;20028;-49
2021/09/11 10:44:39;;;;;;;1.33;0.63;;;;;;;;;;5080978;28;20024;-51
2021/09/11 10:47:07;;;;;;;0.53;0.40;;;;;;;;;;5093751;28;20047;-51
2021/09/11 10:49:37;;;;;;;0.80;0.60;;;;;;;;;;5092803;28;20103;-49
2021/09/11 10:52:08;;;;;;;1.08;0.47;;;;;;;;;;5093579;28;20538;-46
2021/09/11 10:54:40;;;;;;;0.63;0.50;;;;;;;;;;5092668;28;20028;-50
2021/09/11 10:57:10;;;;;;;0.52;0.50;;;;;;;;;;5093388;28;20031;-51
2021/09/11 10:59:41;;;;;;;0.95;0.65;;;;;;;;;;5092448;28;20020;-53
2021/09/11 11:02:24;;;;;;;0.90;0.52;;;;;;;;;;5093257;28;20068;-54
2021/09/11 11:04:51;;;;;;;0.60;0.43;;;;;;;;;;5092399;28;20459;-54
2021/09/11 11:07:21;;;;;;;0.77;0.60;;;;;;;;;;5093241;28;20499;-52
2021/09/11 11:09:51;;;;;;;1.77;0.70;;;;;;;;;;5092246;28;20024;-52
2021/09/11 11:12:26;;;;;;;3.58;0.70;;;;;;;;;;5093180;28;20017;-51
2021/09/11 11:14:58;;;;;;;2.15;0.80;;;;;;;;;;5092202;28;20081;-50
2021/09/11 11:17:25;;;;;;;2.92;0.70;;;;;;;;;;5074985;28;20538;-52
2021/09/11 11:19:53;;;;;;;2.30;0.93;;;;;;;;;;5073884;28;20751;-50
2021/09/11 11:22:40;;;;;;;2.17;0.80;;;;;;;;;;5092561;28;20499;-51
2021/09/11 11:25:11;;;;;;;1.00;0.75;;;;;;;;;;5093424;28;20028;-50
2021/09/11 11:27:39;;;;;;;0.93;0.65;;;;;;;;;;5093792;28;20032;-53
2021/09/11 11:30:07;;;;;;;1.70;0.90;;;;;;;;;;5093675;28;20043;-50
2021/09/11 11:32:38;;;;;;;1.50;0.75;;;;;;;;;;5079363;28;20043;-52
2021/09/11 11:35:06;;;;;;;1.27;0.80;;;;;;;;;;5093340;28;20379;-51
2021/09/11 11:37:38;;;;;;;1.10;1.00;;;;;;;;;;5093191;28;20391;-50
2021/09/11 11:40:13;;;;;;;1.02;0.90;;;;;;;;;;5093172;28;20433;-50
2021/09/11 11:42:42;;;;;;;1.45;1.00;;;;;;;;;;5093020;28;20038;-48
2021/09/11 11:45:10;;;;;;;1.38;0.90;;;;;;;;;;5094473;28;20034;-47
2021/09/11 11:47:55;;;;;;;1.45;0.98;;;;;;;;;;5101907;28;20025;-50
2021/09/11 11:50:26;;;;;;;2.67;1.00;;;;;;;;;;5079889;28;20018;-52
2021/09/11 11:53:01;;;;;;;1.10;1.00;;;;;;;;;;5081592;28;20028;-45
2021/09/11 11:55:29;;;;;;;1.30;1.10;;;;;;;;;;5085413;28;20024;-49
2021/09/11 11:58:10;;;;;;;2.00;1.00;;;;;;;;;;5081806;28;20021;-50
2021/09/11 12:00:40;;;;;;;1.98;1.20;;;;;;;;;;5079958;28;20027;-47
2021/09/11 12:03:07;;;;;;;1.38;0.93;;;;;;;;;;5081232;28;20033;-49
2021/09/11 12:05:43;;;;;;;1.58;1.20;;;;;;;;;;5084405;28;20024;-49
2021/09/11 12:08:10;;;;;;;3.35;1.20;;;;;;;;;;5081559;28;20017;-50
2021/09/11 12:10:37;;;;;;;2.60;0.90;;;;;;;;;;5102993;28;20480;-47
2021/09/11 12:13:11;;;;;;;1.30;1.00;;;;;;;;;;5097612;28;20040;-47
2021/09/11 12:15:39;;;;;;;1.95;1.15;;;;;;;;;;5093049;28;20069;-48
2021/09/11 12:18:18;;;;;;;1.95;1.08;;;;;;;;;;5107336;28;20031;-47
2021/09/11 12:20:49;;;;;;;2.38;1.10;;;;;;;;;;5109693;28;20102;-49
2021/09/11 12:23:20;;;;;;;2.92;1.13;;;;;;;;;;5110492;28;20036;-50
2021/09/11 12:25:48;;;;;;;1.50;0.93;;;;;;;;;;5100730;28;20023;-50
2021/09/11 12:28:30;;;;;;;1.67;1.20;;;;;;;;;;5106369;28;20034;-46
2021/09/11 12:30:57;;;;;;;1.95;1.20;;;;;;;;;;5085172;28;20350;-48
2021/09/11 12:33:25;;;;;;;1.98;1.00;;;;;;;;;;5072237;28;20055;-52
2021/09/11 12:35:53;;;;;;;3.15;1.20;;;;;;;;;;5071875;28;20024;-52
2021/09/11 12:38:20;;;;;;;3.22;0.60;;;;;;;;;;5072030;28;20024;-48
2021/09/11 12:40:47;;;;;;;2.83;1.17;;;;;;;;;;5087793;28;20111;-48
2021/09/11 12:43:14;;;;;;;2.08;0.98;;;;;;;;;;5086223;28;20040;-54
2021/09/11 12:45:41;;;;;;;3.78;1.17;;;;;;;;;;5075561;28;20017;-51
2021/09/11 12:48:12;;;;;;;3.60;1.05;;;;;;;;;;5073497;28;20431;-53
2021/09/11 12:50:39;;;;;;;4.43;0.88;;;;;;;;;;5075562;28;20027;-44
2021/09/11 12:53:06;;;;;;;8.05;1.10;;;;;;;;;;5073524;28;20452;-50
2021/09/11 12:55:33;;;;;;;4.63;0.93;;;;;;;;;;5101668;28;20032;-43
2021/09/11 12:58:00;;;;;;;1.70;0.80;;;;;;;;;;5093317;28;20052;-50
2021/09/11 13:00:27;;;;;;;4.78;1.08;;;;;;;;;;5074329;28;20525;-52
2021/09/11 13:02:54;;;;;;;5.18;1.20;;;;;;;;;;5076294;28;20028;-49
2021/09/11 13:05:21;;;;;;;2.17;1.05;;;;;;;;;;5074749;28;20021;-48
2021/09/11 13:07:48;;;;;;;1.00;0.90;;;;;;;;;;5077359;28;20051;-49
2021/09/11 13:10:15;;;;;;;3.88;1.23;;;;;;;;;;5074882;28;20026;-53
2021/09/11 13:12:41;;;;;;;1.70;1.10;;;;;;;;;;5077337;28;20021;-52
2021/09/11 13:15:09;;;;;;;2.55;1.10;;;;;;;;;;5074518;28;20460;-54
2021/09/11 13:17:36;;;;;;;4.82;1.20;;;;;;;;;;5076088;28;20388;-51
2021/09/11 13:20:04;;;;;;;4.38;1.20;;;;;;;;;;5075239;28;20528;-53
2021/09/11 13:22:31;;;;;;;3.75;0.95;;;;;;;;;;5081405;28;20107;-52
2021/09/11 13:24:58;;;;;;;2.10;1.20;;;;;;;;;;5091731;28;20472;-49
2021/09/11 13:27:25;;;;;;;3.15;0.90;;;;;;;;;;5073130;28;20119;-49
2021/09/11 13:29:52;;;;;;;5.32;0.88;;;;;;;;;;5091711;28;20719;-52
2021/09/11 13:32:18;;;;;;;3.55;0.93;;;;;;;;;;5091488;28;20051;-50
2021/09/11 13:34:45;;;;;;;2.80;0.75;;;;;;;;;;5091805;28;20028;-48
2021/09/11 13:37:13;;;;;;;2.33;0.80;;;;;;;;;;5091466;28;20047;-53
2021/09/11 13:39:40;;;;;;;2.10;1.10;;;;;;;;;;5091523;28;20044;-52
2021/09/11 13:42:07;;;;;;;2.08;0.80;;;;;;;;;;5091574;28;20047;-54
2021/09/11 13:44:34;;;;;;;2.63;0.80;;;;;;;;;;5091610;28;20541;-48
2021/09/11 13:47:01;;;;;;;2.92;1.25;;;;;;;;;;5091404;28;20024;-41
2021/09/11 13:49:28;;;;;;;2.42;0.90;;;;;;;;;;5091578;28;20020;-51
2021/09/11 13:51:55;;;;;;;1.60;0.95;;;;;;;;;;5091406;28;20028;-46
2021/09/11 13:54:22;;;;;;;1.15;0.80;;;;;;;;;;5091254;28;20043;-46
2021/09/11 13:56:49;;;;;;;3.83;1.15;;;;;;;;;;5091735;28;20369;-44
2021/09/11 13:59:16;;;;;;;3.75;1.05;;;;;;;;;;5091234;28;20434;-48
2021/09/11 14:01:43;;;;;;;1.65;1.10;;;;;;;;;;5073397;28;20036;-52
2021/09/11 14:04:11;;;;;;;1.75;0.90;;;;;;;;;;5091247;28;20039;-46
2021/09/11 14:06:38;;;;;;;1.95;0.90;;;;;;;;;;5091167;28;20472;-51
2021/09/11 14:09:05;;;;;;;2.00;0.70;;;;;;;;;;5092987;28;20026;-47
2021/09/11 14:11:32;;;;;;;1.83;0.80;;;;;;;;;;5095062;28;20024;-51
2021/09/11 14:14:00;;;;;;;3.15;1.00;;;;;;;;;;5095036;28;20080;-54
2021/09/11 14:16:27;;;;;;;2.53;0.85;;;;;;;;;;5094719;28;20008;-52
2021/09/11 14:18:54;;;;;;;3.08;0.80;;;;;;;;;;5095061;28;20028;-52
2021/09/11 14:21:21;;;;;;;2.15;1.05;;;;;;;;;;5094723;28;20494;-52
2021/09/11 14:23:48;;;;;;;1.08;0.70;;;;;;;;;;5094647;28;20024;-52
2021/09/11 14:26:15;;;;;;;1.92;0.77;;;;;;;;;;5095029;28;20012;-53
2021/09/11 14:28:44;;;;;;;5.32;1.13;;;;;;;;;;5094611;28;20020;-54
2021/09/11 14:31:11;;;;;;;3.30;1.00;;;;;;;;;;5094450;28;20028;-49
2021/09/11 14:33:38;;;;;;;1.95;0.80;;;;;;;;;;5094654;28;20549;-50
2021/09/11 14:36:07;;;;;;;2.55;1.10;;;;;;;;;;5094544;28;20085;-51
2021/09/11 14:38:38;;;;;;;5.28;0.90;;;;;;;;;;5085042;28;20037;-52
2021/09/11 14:41:05;;;;;;;2.05;0.80;;;;;;;;;;5097622;28;20031;-49
2021/09/11 14:43:34;;;;;;;2.00;1.00;;;;;;;;;;5097284;28;20094;-45
2021/09/11 14:46:04;;;;;;;3.63;0.80;;;;;;;;;;5100669;28;20020;-39
2021/09/11 14:48:31;;;;;;;3.10;0.75;;;;;;;;;;5097695;28;20113;-41